createdAt,value
2019-02-27T00:01:36.052Z,39.57
2019-02-27T00:04:07.154Z,39.75
2019-02-27T00:06:36.549Z,39.77
2019-02-27T00:09:10.137Z,40.50
2019-02-27T00:11:39.750Z,40.43
2019-02-27T00:14:10.262Z,41.53
2019-02-27T00:16:41.741Z,41.00
2019-02-27T00:19:11.147Z,38.35
2019-02-27T00:21:40.937Z,39.90
2019-02-27T00:24:13.465Z,38.90
2019-02-27T00:26:44.599Z,39.95
2019-02-27T00:29:14.037Z,41.17
2019-02-27T00:31:45.985Z,38.83
2019-02-27T00:34:16.219Z,39.30
2019-02-27T00:36:46.812Z,39.23
2019-02-27T00:39:16.472Z,37.60
2019-02-27T00:41:47.275Z,38.43
2019-02-27T00:44:16.683Z,39.70
2019-02-27T00:46:47.557Z,40.07
2019-02-27T00:49:17.043Z,38.97
2019-02-27T00:51:46.442Z,40.27
2019-02-27T00:54:16.934Z,39.13
2019-02-27T00:56:46.563Z,39.33
2019-02-27T00:59:17.756Z,38.33
2019-02-27T01:01:49.701Z,39.33
2019-02-27T01:04:20.421Z,38.83
2019-02-27T01:06:49.824Z,38.50
2019-02-27T01:09:19.289Z,38.60
2019-02-27T01:11:51.857Z,37.60
2019-02-27T01:14:21.310Z,40.73
2019-02-27T01:16:50.849Z,37.70
2019-02-27T01:19:20.534Z,39.23
2019-02-27T01:21:49.961Z,36.67
2019-02-27T01:24:19.397Z,38.37
2019-02-27T01:26:49.468Z,38.27
2019-02-27T01:29:19.175Z,37.50
2019-02-27T01:31:49.102Z,38.80
2019-02-27T01:34:19.167Z,37.35
2019-02-27T01:36:49.176Z,38.47
2019-02-27T01:39:19.200Z,36.70
2019-02-27T01:41:49.489Z,37.20
2019-02-27T01:44:19.109Z,37.83
2019-02-27T01:46:49.127Z,37.57
2019-02-27T01:49:19.459Z,37.93
2019-02-27T01:51:49.164Z,39.30
2019-02-27T01:54:21.661Z,38.95
2019-02-27T01:56:51.260Z,39.85
2019-02-27T01:59:20.656Z,37.07
2019-02-27T02:01:51.059Z,38.20
2019-02-27T02:04:20.883Z,37.07
2019-02-27T02:06:50.267Z,37.80
2019-02-27T02:09:55.087Z,38.30
2019-02-27T02:12:28.561Z,38.10
2019-02-27T02:15:13.430Z,36.83
2019-02-27T02:18:19.679Z,36.47
2019-02-27T02:21:12.771Z,37.30
2019-02-27T02:24:35.108Z,36.07
2019-02-27T02:27:39.166Z,35.27
2019-02-27T02:30:52.249Z,37.90
2019-02-27T02:34:05.209Z,36.40
2019-02-27T02:37:17.483Z,37.07
2019-02-27T02:40:32.086Z,35.03
2019-02-27T02:43:24.788Z,35.60
2019-02-27T02:46:15.627Z,35.30
2019-02-27T02:49:09.533Z,35.63
2019-02-27T02:52:11.345Z,36.00
2019-02-27T02:55:17.341Z,37.20
2019-02-27T02:58:30.409Z,36.93
2019-02-27T03:01:27.569Z,34.75
2019-02-27T03:04:33.268Z,33.75
2019-02-27T03:07:44.702Z,35.50
2019-02-27T03:10:25.911Z,36.50
2019-02-27T03:13:19.148Z,37.58
2019-02-27T03:16:12.820Z,36.03
2019-02-27T03:19:10.294Z,35.65
2019-02-27T03:22:21.321Z,36.37
2019-02-27T03:25:18.291Z,37.30
2019-02-27T03:28:13.248Z,35.97
2019-02-27T03:31:16.272Z,35.03
2019-02-27T03:34:33.701Z,34.73
2019-02-27T03:37:15.849Z,34.65
2019-02-27T03:40:35.257Z,34.63
2019-02-27T03:43:37.246Z,35.10
2019-02-27T03:46:42.402Z,33.53
2019-02-27T03:49:41.494Z,35.23
2019-02-27T03:52:47.773Z,36.37
2019-02-27T03:55:52.073Z,35.90
2019-02-27T03:59:07.505Z,35.27
2019-02-27T04:02:07.676Z,32.77
2019-02-27T04:05:17.524Z,33.77
2019-02-27T04:08:28.651Z,34.00
2019-02-27T04:10:58.538Z,34.70
2019-02-27T04:13:28.000Z,35.17
2019-02-27T04:15:58.553Z,34.60
2019-02-27T04:18:28.439Z,33.60
2019-02-27T04:20:58.283Z,34.57
2019-02-27T04:23:29.482Z,33.73
2019-02-27T04:26:05.397Z,34.57
2019-02-27T04:28:31.749Z,35.33
2019-02-27T04:31:01.151Z,34.73
2019-02-27T04:33:30.789Z,35.47
2019-02-27T04:36:02.011Z,34.30
2019-02-27T04:38:32.544Z,32.60
2019-02-27T04:41:02.158Z,33.27
2019-02-27T04:43:32.265Z,33.90
2019-02-27T04:46:02.152Z,31.63
2019-02-27T04:48:31.821Z,33.13
2019-02-27T04:51:03.018Z,33.80
2019-02-27T04:53:32.773Z,32.77
2019-02-27T04:56:02.341Z,33.10
2019-02-27T04:58:33.556Z,33.63
2019-02-27T05:01:05.532Z,33.00
2019-02-27T05:03:36.126Z,32.57
2019-02-27T05:06:05.537Z,31.53
2019-02-27T05:08:36.095Z,33.20
2019-02-27T05:11:07.279Z,32.63
2019-02-27T05:13:36.718Z,31.27
2019-02-27T05:16:07.148Z,31.40
2019-02-27T05:18:36.713Z,31.27
2019-02-27T05:21:07.248Z,32.25
2019-02-27T05:23:36.703Z,33.90
2019-02-27T05:26:06.416Z,32.97
2019-02-27T05:28:36.980Z,31.47
2019-02-27T05:31:06.452Z,33.40
2019-02-27T05:33:39.561Z,31.30
2019-02-27T05:36:07.170Z,31.37
2019-02-27T05:38:36.573Z,31.40
2019-02-27T05:41:07.272Z,31.50
2019-02-27T05:43:37.899Z,31.97
2019-02-27T05:46:07.307Z,32.03
2019-02-27T05:48:37.870Z,31.90
2019-02-27T05:51:08.542Z,32.73
2019-02-27T05:53:39.264Z,34.07
2019-02-27T05:56:10.143Z,30.83
2019-02-27T05:58:39.556Z,33.13
2019-02-27T06:01:08.983Z,32.30
2019-02-27T06:03:39.607Z,31.30
2019-02-27T06:06:11.494Z,32.47
2019-02-27T06:08:40.208Z,32.10
2019-02-27T06:11:09.762Z,32.53
2019-02-27T06:13:39.183Z,32.87
2019-02-27T06:16:09.316Z,32.27
2019-02-27T06:18:39.096Z,32.63
2019-02-27T06:21:08.498Z,33.53
2019-02-27T06:23:38.487Z,33.43
2019-02-27T06:26:08.145Z,33.50
2019-02-27T06:28:37.566Z,34.18
2019-02-27T06:31:07.005Z,35.73
2019-02-27T06:33:38.476Z,35.73
2019-02-27T06:36:09.459Z,34.13
2019-02-27T06:38:39.148Z,34.53
2019-02-27T06:41:10.329Z,34.67
2019-02-27T06:43:40.777Z,33.87
2019-02-27T06:46:11.985Z,34.40
2019-02-27T06:48:43.569Z,34.33
2019-02-27T06:51:13.637Z,33.80
2019-02-27T06:53:44.158Z,33.47
2019-02-27T06:56:13.917Z,34.05
2019-02-27T06:58:43.709Z,36.07
2019-02-27T07:01:14.909Z,33.50
2019-02-27T07:03:44.480Z,35.23
2019-02-27T07:06:14.019Z,34.57
2019-02-27T07:08:44.921Z,34.53
2019-02-27T07:11:16.512Z,35.53
2019-02-27T07:13:48.883Z,35.30
2019-02-27T07:16:20.497Z,35.33
2019-02-27T07:18:52.091Z,34.70
2019-02-27T07:21:22.627Z,34.50
2019-02-27T07:23:57.603Z,34.60
2019-02-27T07:26:24.704Z,34.05
2019-02-27T07:28:54.158Z,32.97
2019-02-27T07:31:23.537Z,34.60
2019-02-27T07:33:54.858Z,34.47
2019-02-27T07:36:25.533Z,34.90
2019-02-27T07:38:57.643Z,34.43
2019-02-27T07:41:28.228Z,33.25
2019-02-27T07:43:57.632Z,34.80
2019-02-27T07:46:28.444Z,34.33
2019-02-27T07:48:58.234Z,33.53
2019-02-27T07:51:29.990Z,35.08
2019-02-27T07:53:59.452Z,33.40
2019-02-27T07:56:30.482Z,35.67
2019-02-27T07:59:00.892Z,35.13
2019-02-27T08:01:43.254Z,34.85
2019-02-27T08:04:04.847Z,33.25
2019-02-27T08:06:35.094Z,33.55
2019-02-27T08:09:06.474Z,33.10
2019-02-27T08:11:37.983Z,34.20
2019-02-27T08:14:07.686Z,32.27
2019-02-27T08:16:38.196Z,33.00
2019-02-27T08:19:11.381Z,32.70
2019-02-27T08:21:39.964Z,32.20
2019-02-27T08:24:11.212Z,32.80
2019-02-27T08:26:42.599Z,31.80
2019-02-27T08:29:12.042Z,33.17
2019-02-27T08:31:41.473Z,32.20
2019-02-27T08:34:11.116Z,31.10
2019-02-27T08:36:40.554Z,47.10
2019-02-27T08:39:11.793Z,35.60
2019-02-27T08:41:41.277Z,32.93
2019-02-27T08:44:12.274Z,32.23
2019-02-27T08:46:43.677Z,31.57
2019-02-27T08:49:13.395Z,31.17
2019-02-27T08:51:44.508Z,28.75
2019-02-27T08:54:14.310Z,29.70
2019-02-27T08:56:47.323Z,29.82
2019-02-27T08:59:16.115Z,30.07
2019-02-27T09:01:45.523Z,30.63
2019-02-27T09:04:15.639Z,29.87
2019-02-27T09:06:46.883Z,32.90
2019-02-27T09:09:17.904Z,30.33
2019-02-27T09:11:47.582Z,30.93
2019-02-27T09:14:18.801Z,29.70
2019-02-27T09:16:50.018Z,27.80
2019-02-27T09:19:23.578Z,29.17
2019-02-27T09:21:52.952Z,29.53
2019-02-27T09:24:25.150Z,29.77
2019-02-27T09:26:54.626Z,29.60
2019-02-27T09:29:24.102Z,28.90
2019-02-27T09:31:53.577Z,28.73
2019-02-27T09:34:26.633Z,28.07
2019-02-27T09:36:54.708Z,27.90
2019-02-27T09:39:24.215Z,26.62
2019-02-27T09:41:53.781Z,27.37
2019-02-27T09:44:23.309Z,25.43
2019-02-27T09:46:53.136Z,24.07
2019-02-27T09:49:23.290Z,24.90
2019-02-27T09:51:55.852Z,24.33
2019-02-27T09:54:25.035Z,24.63
2019-02-27T09:57:02.076Z,25.35
2019-02-27T09:59:30.281Z,25.87
2019-02-27T10:02:00.920Z,26.07
2019-02-27T10:04:30.582Z,25.12
2019-02-27T10:07:00.067Z,24.17
2019-02-27T10:09:29.758Z,24.37
2019-02-27T10:12:02.475Z,24.10
2019-02-27T10:14:34.698Z,24.13
2019-02-27T10:17:06.767Z,25.00
2019-02-27T10:19:35.769Z,26.15
2019-02-27T10:22:05.627Z,26.33
2019-02-27T10:24:37.536Z,24.63
2019-02-27T10:27:09.155Z,28.35
2019-02-27T10:29:47.597Z,25.20
2019-02-27T10:32:15.744Z,25.50
2019-02-27T10:34:45.234Z,25.20
2019-02-27T10:37:18.158Z,25.43
2019-02-27T10:39:45.994Z,26.27
2019-02-27T10:42:16.632Z,24.83
2019-02-27T10:44:47.888Z,25.57
2019-02-27T10:47:17.406Z,27.00
2019-02-27T10:49:46.859Z,25.23
2019-02-27T10:52:16.403Z,25.87
2019-02-27T10:54:45.965Z,25.43
2019-02-27T10:57:17.881Z,24.30
2019-02-27T10:59:47.262Z,25.00
2019-02-27T11:02:16.757Z,25.87
2019-02-27T11:04:47.345Z,23.63
2019-02-27T11:07:18.029Z,25.90
2019-02-27T11:09:47.478Z,25.33
2019-02-27T11:12:17.672Z,24.43
2019-02-27T11:14:47.134Z,24.00
2019-02-27T11:17:18.251Z,23.97
2019-02-27T11:19:47.703Z,24.63
2019-02-27T11:22:17.141Z,26.00
2019-02-27T11:24:48.940Z,23.10
2019-02-27T11:27:17.956Z,23.20
2019-02-27T11:29:47.523Z,24.13
2019-02-27T11:32:22.999Z,24.33
2019-02-27T11:34:51.383Z,23.23
2019-02-27T11:37:22.580Z,25.00
2019-02-27T11:39:51.985Z,24.33
2019-02-27T11:42:22.853Z,23.57
2019-02-27T11:44:52.374Z,23.97
2019-02-27T11:47:22.982Z,24.03
2019-02-27T11:49:53.696Z,24.00
2019-02-27T11:52:28.651Z,24.50
2019-02-27T11:54:58.678Z,22.48
2019-02-27T11:57:30.508Z,23.23
2019-02-27T11:59:59.698Z,23.33
2019-02-27T12:02:33.860Z,24.30
2019-02-27T12:05:00.313Z,23.00
2019-02-27T12:07:31.167Z,23.97
2019-02-27T12:10:00.574Z,24.60
2019-02-27T12:12:30.189Z,24.40
2019-02-27T12:15:00.091Z,24.77
2019-02-27T12:17:30.580Z,23.47
2019-02-27T12:20:01.387Z,23.35
2019-02-27T12:22:32.931Z,23.17
2019-02-27T12:25:03.239Z,21.68
2019-02-27T12:27:48.571Z,20.63
2019-02-27T12:30:05.632Z,21.47
2019-02-27T12:32:36.391Z,20.90
2019-02-27T12:35:10.857Z,19.23
2019-02-27T12:37:39.411Z,19.40
2019-02-27T12:40:10.861Z,19.37
2019-02-27T12:42:42.587Z,19.13
2019-02-27T12:45:14.761Z,17.97
2019-02-27T12:47:45.900Z,17.13
2019-02-27T12:50:17.449Z,17.90
2019-02-27T12:52:48.130Z,18.53
2019-02-27T12:55:20.412Z,17.90
2019-02-27T12:57:53.129Z,18.10
2019-02-27T13:00:26.479Z,17.73
2019-02-27T13:02:58.819Z,17.27
2019-02-27T13:05:30.058Z,18.60
2019-02-27T13:07:59.417Z,18.23
2019-02-27T13:10:34.150Z,18.77
2019-02-27T13:13:02.226Z,18.55
2019-02-27T13:15:31.808Z,20.53
2019-02-27T13:18:01.819Z,19.37
2019-02-27T13:20:31.408Z,21.07
2019-02-27T13:23:03.871Z,21.00
2019-02-27T13:25:33.436Z,21.73
2019-02-27T13:28:04.685Z,20.65
2019-02-27T13:30:34.190Z,21.97
2019-02-27T13:33:03.610Z,20.47
2019-02-27T13:35:33.684Z,20.47
2019-02-27T13:38:04.723Z,19.52
2019-02-27T13:40:36.693Z,19.07
2019-02-27T13:43:08.188Z,19.35
2019-02-27T13:45:39.659Z,17.83
2019-02-27T13:48:09.083Z,16.97
2019-02-27T13:50:38.720Z,17.43
2019-02-27T13:53:08.181Z,18.25
2019-02-27T13:55:37.906Z,18.07
2019-02-27T13:58:07.473Z,16.90
2019-02-27T14:00:37.767Z,18.40
2019-02-27T14:03:12.040Z,17.50
2019-02-27T14:05:38.652Z,20.53
2019-02-27T14:08:09.196Z,18.35
2019-02-27T14:10:38.697Z,17.03
2019-02-27T14:13:09.774Z,16.00
2019-02-27T14:15:39.575Z,16.83
2019-02-27T14:18:08.990Z,16.70
2019-02-27T14:20:38.555Z,15.37
2019-02-27T14:23:08.578Z,15.43
2019-02-27T14:25:38.000Z,15.43
2019-02-27T14:28:08.734Z,14.93
2019-02-27T14:30:41.021Z,14.95
2019-02-27T14:33:11.124Z,15.40
2019-02-27T14:35:40.839Z,16.03
2019-02-27T14:38:10.306Z,15.57
2019-02-27T14:40:41.331Z,15.13
2019-02-27T14:43:11.088Z,15.23
2019-02-27T14:45:43.824Z,15.47
2019-02-27T14:48:14.601Z,14.67
2019-02-27T14:50:44.369Z,14.60
2019-02-27T14:53:16.550Z,15.63
2019-02-27T14:55:45.952Z,14.50
2019-02-27T14:58:24.008Z,15.47
2019-02-27T15:00:50.464Z,14.77
2019-02-27T15:03:20.498Z,15.67
2019-02-27T15:05:50.697Z,16.02
2019-02-27T15:08:20.612Z,16.07
2019-02-27T15:10:50.547Z,18.75
2019-02-27T15:13:20.872Z,17.83
2019-02-27T15:15:50.581Z,16.80
2019-02-27T15:18:23.076Z,15.90
2019-02-27T15:20:54.760Z,16.20
2019-02-27T15:23:28.191Z,15.90
2019-02-27T15:25:57.534Z,16.03
2019-02-27T15:28:32.926Z,15.90
2019-02-27T15:30:59.303Z,15.75
2019-02-27T15:33:28.704Z,16.40
2019-02-27T15:35:58.165Z,16.75
2019-02-27T15:38:27.554Z,16.80
2019-02-27T15:40:56.921Z,18.70
2019-02-27T15:43:27.384Z,17.35
2019-02-27T15:45:58.593Z,17.13
2019-02-27T15:48:28.281Z,17.07
2019-02-27T15:50:59.867Z,17.25
2019-02-27T15:53:30.340Z,17.80
2019-02-27T15:55:59.740Z,17.10
2019-02-27T15:58:29.554Z,17.97
2019-02-27T16:00:58.956Z,17.70
2019-02-27T16:03:30.058Z,16.27
2019-02-27T16:06:04.869Z,17.27
2019-02-27T16:08:31.750Z,16.45
2019-02-27T16:11:02.959Z,17.33
2019-02-27T16:13:34.684Z,17.42
2019-02-27T16:16:06.447Z,16.93
2019-02-27T16:18:36.910Z,17.70
2019-02-27T16:21:07.390Z,20.30
2019-02-27T16:23:37.422Z,19.17
2019-02-27T16:26:07.566Z,17.43
2019-02-27T16:28:39.065Z,16.00
2019-02-27T16:31:08.452Z,17.60
2019-02-27T16:33:37.942Z,18.10
2019-02-27T16:36:07.408Z,16.00
2019-02-27T16:38:36.790Z,17.67
2019-02-27T16:41:06.162Z,15.90
2019-02-27T16:43:35.809Z,16.57
2019-02-27T16:46:08.652Z,15.80
2019-02-27T16:48:36.502Z,16.80
2019-02-27T16:51:08.032Z,17.62
2019-02-27T16:53:37.433Z,16.37
2019-02-27T16:56:08.369Z,16.00
2019-02-27T16:58:38.208Z,22.97
2019-02-27T17:01:09.571Z,18.23
2019-02-27T17:03:40.763Z,18.13
2019-02-27T17:06:14.161Z,17.00
2019-02-27T17:08:44.045Z,17.00
2019-02-27T17:11:13.568Z,16.77
2019-02-27T17:13:44.154Z,17.27
2019-02-27T17:16:13.543Z,17.07
2019-02-27T17:18:42.950Z,16.90
2019-02-27T17:21:12.837Z,16.07
2019-02-27T17:23:45.382Z,16.77
2019-02-27T17:26:13.420Z,16.10
2019-02-27T17:28:43.062Z,17.00
2019-02-27T17:31:13.473Z,15.93
2019-02-27T17:33:43.150Z,16.30
2019-02-27T17:36:12.584Z,16.03
2019-02-27T17:38:45.266Z,16.47
2019-02-27T17:41:14.215Z,16.20
2019-02-27T17:43:43.891Z,15.97
2019-02-27T17:46:14.401Z,17.30
2019-02-27T17:48:45.972Z,16.87
2019-02-27T17:51:14.994Z,16.63
2019-02-27T17:53:45.697Z,16.13
2019-02-27T17:56:16.182Z,17.20
2019-02-27T17:58:45.879Z,18.33
2019-02-27T18:01:17.965Z,18.03
2019-02-27T18:03:49.040Z,19.40
2019-02-27T18:06:18.774Z,18.30
2019-02-27T18:08:51.551Z,17.13
2019-02-27T18:11:19.447Z,17.13
2019-02-27T18:13:49.126Z,16.57
2019-02-27T18:16:18.562Z,15.67
2019-02-27T18:18:47.916Z,15.90
2019-02-27T18:21:18.405Z,15.20
2019-02-27T18:23:48.074Z,14.67
2019-02-27T18:26:18.028Z,14.47
2019-02-27T18:28:47.588Z,15.97
2019-02-27T18:31:16.993Z,15.97
2019-02-27T18:33:49.430Z,16.10
2019-02-27T18:36:18.277Z,17.60
2019-02-27T18:38:49.361Z,16.83
2019-02-27T18:41:18.837Z,17.10
2019-02-27T18:43:49.336Z,16.27
2019-02-27T18:46:18.794Z,16.40
2019-02-27T18:48:48.197Z,17.17
2019-02-27T18:51:21.075Z,16.70
2019-02-27T18:53:51.019Z,17.37
2019-02-27T18:56:21.047Z,17.00
2019-02-27T18:58:55.472Z,16.63
2019-02-27T19:01:25.149Z,16.83
2019-02-27T19:04:00.264Z,17.30
2019-02-27T19:06:28.997Z,17.70
2019-02-27T19:08:59.526Z,17.37
2019-02-27T19:11:29.526Z,16.77
2019-02-27T19:13:59.054Z,17.87
2019-02-27T19:16:28.452Z,17.87
2019-02-27T19:18:57.858Z,17.40
2019-02-27T19:21:27.464Z,17.20
2019-02-27T19:23:56.903Z,17.50
2019-02-27T19:26:26.297Z,16.82
2019-02-27T19:28:59.340Z,18.13
2019-02-27T19:31:28.100Z,17.73
2019-02-27T19:33:57.503Z,17.60
2019-02-27T19:36:30.510Z,19.17
2019-02-27T19:38:58.740Z,19.55
2019-02-27T19:41:28.147Z,19.37
2019-02-27T19:43:57.828Z,18.67
2019-02-27T19:46:27.208Z,18.77
2019-02-27T19:48:56.750Z,18.97
2019-02-27T19:51:26.387Z,18.45
2019-02-27T19:53:55.791Z,18.30
2019-02-27T19:56:25.209Z,19.00
2019-02-27T19:58:56.374Z,19.40
2019-02-27T20:01:25.780Z,20.27
2019-02-27T20:03:55.188Z,20.00
2019-02-27T20:06:27.965Z,19.40
2019-02-27T20:08:57.922Z,19.62
2019-02-27T20:11:27.363Z,19.82
2019-02-27T20:14:02.160Z,20.60
2019-02-27T20:16:28.042Z,19.33
2019-02-27T20:18:58.541Z,20.30
2019-02-27T20:21:29.510Z,19.53
2019-02-27T20:24:01.485Z,18.77
2019-02-27T20:26:31.421Z,18.90
2019-02-27T20:29:04.211Z,19.40
2019-02-27T20:31:33.241Z,19.77
2019-02-27T20:34:02.633Z,19.87
2019-02-27T20:36:33.198Z,20.05
2019-02-27T20:39:06.153Z,20.87
2019-02-27T20:41:40.921Z,21.73
2019-02-27T20:44:09.035Z,19.77
2019-02-27T20:46:38.408Z,20.17
2019-02-27T20:49:10.391Z,20.43
2019-02-27T20:51:41.816Z,20.70
2019-02-27T20:54:12.416Z,21.03
2019-02-27T20:56:41.791Z,21.17
2019-02-27T20:59:11.233Z,19.60
2019-02-27T21:01:46.716Z,20.50
2019-02-27T21:04:13.575Z,19.43
2019-02-27T21:06:47.230Z,18.73
2019-02-27T21:09:14.196Z,20.77
2019-02-27T21:11:45.397Z,20.13
2019-02-27T21:14:14.899Z,20.37
2019-02-27T21:16:45.706Z,19.90
2019-02-27T21:19:15.307Z,20.60
2019-02-27T21:21:45.346Z,20.67
2019-02-27T21:24:15.070Z,21.20
2019-02-27T21:26:46.048Z,20.30
2019-02-27T21:29:15.927Z,20.73
2019-02-27T21:31:47.455Z,21.03
2019-02-27T21:34:19.336Z,20.83
2019-02-27T21:36:48.441Z,20.67
2019-02-27T21:39:17.849Z,20.30
2019-02-27T21:41:49.095Z,20.13
2019-02-27T21:44:25.407Z,20.27
2019-02-27T21:46:50.245Z,20.10
2019-02-27T21:49:19.760Z,19.47
2019-02-27T21:51:51.353Z,20.30
2019-02-27T21:54:21.267Z,20.32
2019-02-27T21:56:52.867Z,19.57
2019-02-27T21:59:22.499Z,20.17
2019-02-27T22:01:53.434Z,20.60
2019-02-27T22:04:25.275Z,20.27
2019-02-27T22:06:54.945Z,20.07
2019-02-27T22:09:25.444Z,20.77
2019-02-27T22:11:58.129Z,21.27
2019-02-27T22:14:28.255Z,19.73
2019-02-27T22:17:01.603Z,20.32
2019-02-27T22:19:29.870Z,20.45
2019-02-27T22:22:01.666Z,20.30
2019-02-27T22:24:30.994Z,20.55
2019-02-27T22:27:00.373Z,21.95
2019-02-27T22:29:29.918Z,21.37
2019-02-27T22:31:59.329Z,21.33
2019-02-27T22:34:28.940Z,21.17
2019-02-27T22:36:58.488Z,21.63
2019-02-27T22:39:27.859Z,20.60
2019-02-27T22:41:57.250Z,19.80
2019-02-27T22:44:29.768Z,20.50
2019-02-27T22:47:00.983Z,20.27
2019-02-27T22:49:32.119Z,20.53
2019-02-27T22:52:02.908Z,20.87
2019-02-27T22:54:33.202Z,19.65
2019-02-27T22:57:03.748Z,21.30
2019-02-27T22:59:34.006Z,20.43
2019-02-27T23:02:05.917Z,20.70
2019-02-27T23:04:35.327Z,22.02
2019-02-27T23:07:06.769Z,21.07
2019-02-27T23:09:36.973Z,21.35
2019-02-27T23:12:08.533Z,21.23
2019-02-27T23:14:39.602Z,20.53
2019-02-27T23:17:09.108Z,21.20
2019-02-27T23:19:38.806Z,22.37
2019-02-27T23:22:09.378Z,21.03
2019-02-27T23:24:43.702Z,21.13
2019-02-27T23:27:09.907Z,20.47
2019-02-27T23:29:39.888Z,21.77
2019-02-27T23:32:10.031Z,21.43
2019-02-27T23:34:41.850Z,21.23
2019-02-27T23:37:11.104Z,21.73
2019-02-27T23:39:42.939Z,21.27
2019-02-27T23:42:13.107Z,23.23
2019-02-27T23:44:42.991Z,23.97
2019-02-27T23:47:12.454Z,23.77
2019-02-27T23:49:42.127Z,24.50
2019-02-27T23:52:11.754Z,24.37
2019-02-27T23:54:42.124Z,24.17
2019-02-27T23:57:11.777Z,25.70
2019-02-27T23:59:42.718Z,27.43
